createdAt,value
2019-01-23T00:00:51.161Z,9.87
2019-01-23T00:03:18.458Z,10.33
2019-01-23T00:05:45.671Z,10.47
2019-01-23T00:08:12.906Z,10.60
2019-01-23T00:10:40.157Z,10.70
2019-01-23T00:13:07.396Z,9.57
2019-01-23T00:15:34.751Z,10.90
2019-01-23T00:18:02.098Z,10.93
2019-01-23T00:20:29.443Z,11.10
2019-01-23T00:22:56.779Z,12.30
2019-01-23T00:25:23.998Z,10.03
2019-01-23T00:27:51.368Z,10.50
2019-01-23T00:30:18.708Z,11.57
2019-01-23T00:32:46.092Z,12.20
2019-01-23T00:35:13.447Z,12.30
2019-01-23T00:37:42.473Z,11.33
2019-01-23T00:40:10.250Z,11.33
2019-01-23T00:42:37.495Z,12.73
2019-01-23T00:45:06.497Z,12.33
2019-01-23T00:47:33.712Z,12.67
2019-01-23T00:50:00.964Z,11.23
2019-01-23T00:52:28.312Z,12.70
2019-01-23T00:54:55.565Z,13.00
2019-01-23T00:57:22.912Z,13.50
2019-01-23T00:59:50.233Z,12.77
2019-01-23T01:02:17.574Z,13.23
2019-01-23T01:04:44.892Z,14.40
2019-01-23T01:07:12.148Z,14.53
2019-01-23T01:09:39.462Z,14.20
2019-01-23T01:12:06.806Z,14.67
2019-01-23T01:14:34.189Z,14.50
2019-01-23T01:17:01.539Z,15.07
2019-01-23T01:19:28.847Z,15.70
2019-01-23T01:21:56.172Z,13.97
2019-01-23T01:24:23.534Z,14.57
2019-01-23T01:26:50.850Z,15.57
2019-01-23T01:29:18.148Z,15.13
2019-01-23T01:31:45.735Z,15.60
2019-01-23T01:34:13.130Z,15.87
2019-01-23T01:36:40.339Z,16.43
2019-01-23T01:39:08.075Z,15.63
2019-01-23T01:41:35.425Z,15.57
2019-01-23T01:44:02.867Z,15.47
2019-01-23T01:46:30.115Z,17.13
2019-01-23T01:48:57.436Z,16.13
2019-01-23T01:51:24.783Z,18.30
2019-01-23T01:53:52.082Z,18.80
2019-01-23T01:56:19.345Z,19.47
2019-01-23T01:58:46.663Z,20.10
2019-01-23T02:01:13.933Z,21.33
2019-01-23T02:03:41.242Z,20.70
2019-01-23T02:06:08.468Z,20.77
2019-01-23T02:08:35.828Z,20.43
2019-01-23T02:11:03.651Z,20.00
2019-01-23T02:13:30.879Z,20.50
2019-01-23T02:15:58.233Z,22.67
2019-01-23T02:18:25.654Z,23.70
2019-01-23T02:20:53.104Z,19.67
2019-01-23T02:23:20.421Z,21.23
2019-01-23T02:25:47.892Z,22.87
2019-01-23T02:28:15.330Z,21.67
2019-01-23T02:30:42.779Z,21.03
2019-01-23T02:33:10.394Z,20.87
2019-01-23T02:35:37.782Z,19.67
2019-01-23T02:38:05.219Z,19.07
2019-01-23T02:40:32.426Z,18.83
2019-01-23T02:42:59.691Z,18.10
2019-01-23T02:45:26.990Z,19.13
2019-01-23T02:47:54.318Z,19.47
2019-01-23T02:50:21.739Z,19.53
2019-01-23T02:52:49.089Z,19.90
2019-01-23T02:55:16.535Z,20.47
2019-01-23T02:57:43.884Z,20.57
2019-01-23T03:00:15.951Z,19.43
2019-01-23T03:02:43.488Z,20.67
2019-01-23T03:05:12.760Z,19.17
2019-01-23T03:07:40.098Z,19.43
2019-01-23T03:10:09.845Z,19.17
2019-01-23T03:12:37.227Z,19.53
2019-01-23T03:15:06.251Z,20.43
2019-01-23T03:17:33.469Z,20.97
2019-01-23T03:20:00.923Z,20.47
2019-01-23T03:22:28.356Z,20.00
2019-01-23T03:24:55.615Z,20.40
2019-01-23T03:27:22.993Z,19.67
2019-01-23T03:29:50.306Z,18.63
2019-01-23T03:32:17.573Z,18.40
2019-01-23T03:34:45.028Z,19.97
2019-01-23T03:37:12.348Z,19.00
2019-01-23T03:39:39.745Z,17.43
2019-01-23T03:42:07.056Z,18.40
2019-01-23T03:44:34.367Z,17.30
2019-01-23T03:47:01.642Z,16.33
2019-01-23T03:49:29.004Z,17.67
2019-01-23T03:51:56.238Z,17.40
2019-01-23T03:54:23.572Z,16.50
2019-01-23T03:56:50.804Z,16.53
2019-01-23T03:59:18.443Z,15.73
2019-01-23T04:01:45.775Z,16.87
2019-01-23T04:04:13.029Z,18.70
2019-01-23T04:06:40.337Z,17.63
2019-01-23T04:09:07.696Z,15.27
2019-01-23T04:11:35.031Z,16.83
2019-01-23T04:14:02.259Z,17.90
2019-01-23T04:16:29.518Z,18.27
2019-01-23T04:18:56.728Z,17.47
2019-01-23T04:21:24.051Z,18.50
2019-01-23T04:23:51.521Z,18.67
2019-01-23T04:26:18.968Z,17.87
2019-01-23T04:28:46.419Z,16.77
2019-01-23T04:31:13.740Z,18.10
2019-01-23T04:33:41.229Z,17.93
2019-01-23T04:36:08.577Z,17.33
2019-01-23T04:38:36.229Z,17.93
2019-01-23T04:41:03.536Z,17.83
2019-01-23T04:43:30.779Z,18.17
2019-01-23T04:45:58.016Z,17.77
2019-01-23T04:48:25.228Z,17.17
2019-01-23T04:51:10.842Z,16.57
2019-01-23T04:53:40.926Z,17.13
2019-01-23T04:56:08.317Z,18.10
2019-01-23T04:58:35.663Z,16.80
2019-01-23T05:01:03.731Z,16.80
2019-01-23T05:03:31.081Z,16.90
2019-01-23T05:05:58.523Z,17.30
2019-01-23T05:08:25.892Z,16.13
2019-01-23T05:10:53.163Z,17.70
2019-01-23T05:13:20.561Z,17.87
2019-01-23T05:15:47.899Z,17.33
2019-01-23T05:18:15.220Z,16.50
2019-01-23T05:20:42.567Z,17.63
2019-01-23T05:23:10.036Z,18.57
2019-01-23T05:25:37.484Z,19.70
2019-01-23T05:28:04.697Z,22.87
2019-01-23T05:30:32.099Z,20.23
2019-01-23T05:32:59.316Z,17.93
2019-01-23T05:35:26.641Z,18.43
2019-01-23T05:37:53.978Z,17.70
2019-01-23T05:40:21.310Z,18.33
2019-01-23T05:42:48.656Z,19.77
2019-01-23T05:45:16.276Z,18.43
2019-01-23T05:47:43.637Z,17.63
2019-01-23T05:50:13.980Z,17.13
2019-01-23T05:52:41.491Z,16.10
2019-01-23T05:55:09.900Z,17.27
2019-01-23T05:57:37.272Z,17.03
2019-01-23T06:00:06.728Z,16.73
2019-01-23T06:02:34.058Z,17.53
2019-01-23T06:05:01.382Z,16.50
2019-01-23T06:07:28.715Z,17.13
2019-01-23T06:09:55.955Z,15.67
2019-01-23T06:12:23.320Z,17.70
2019-01-23T06:14:50.705Z,16.67
2019-01-23T06:17:18.036Z,17.27
2019-01-23T06:19:45.348Z,16.60
2019-01-23T06:22:12.700Z,16.60
2019-01-23T06:24:40.061Z,17.37
2019-01-23T06:27:07.416Z,17.43
2019-01-23T06:29:34.745Z,17.50
2019-01-23T06:32:02.195Z,17.00
2019-01-23T06:34:29.462Z,18.57
2019-01-23T06:36:56.840Z,17.17
2019-01-23T06:39:24.268Z,14.80
2019-01-23T06:41:51.592Z,16.50
2019-01-23T06:44:19.091Z,16.77
2019-01-23T06:46:46.291Z,15.73
2019-01-23T06:49:13.626Z,15.27
2019-01-23T06:51:40.971Z,15.10
2019-01-23T06:54:08.183Z,17.07
2019-01-23T06:56:35.440Z,16.47
2019-01-23T06:59:02.649Z,16.63
2019-01-23T07:01:29.979Z,17.43
2019-01-23T07:03:57.213Z,17.37
2019-01-23T07:06:24.612Z,16.80
2019-01-23T07:08:52.040Z,16.43
2019-01-23T07:11:19.576Z,17.47
2019-01-23T07:13:46.958Z,16.33
2019-01-23T07:16:14.208Z,17.37
2019-01-23T07:18:41.608Z,17.73
2019-01-23T07:21:08.925Z,17.53
2019-01-23T07:23:36.149Z,16.10
2019-01-23T07:26:03.504Z,16.73
2019-01-23T07:28:30.725Z,18.77
2019-01-23T07:30:58.078Z,19.30
2019-01-23T07:33:25.400Z,18.60
2019-01-23T07:35:52.740Z,18.57
2019-01-23T07:38:19.962Z,17.73
2019-01-23T07:40:47.455Z,17.90
2019-01-23T07:43:15.121Z,17.57
2019-01-23T07:45:42.672Z,18.47
2019-01-23T07:48:10.120Z,18.30
2019-01-23T07:50:37.428Z,17.30
2019-01-23T07:53:04.673Z,16.67
2019-01-23T07:55:31.884Z,18.17
2019-01-23T07:57:59.308Z,18.07
2019-01-23T08:00:31.354Z,18.67
2019-01-23T08:02:55.968Z,19.37
2019-01-23T08:05:24.476Z,18.27
2019-01-23T08:07:52.153Z,18.37
2019-01-23T08:10:19.920Z,17.20
2019-01-23T08:12:47.310Z,19.07
2019-01-23T08:15:19.901Z,17.30
2019-01-23T08:17:47.219Z,16.97
2019-01-23T08:20:16.020Z,17.07
2019-01-23T08:22:43.315Z,18.33
2019-01-23T08:25:10.792Z,17.63
2019-01-23T08:27:38.215Z,18.23
2019-01-23T08:30:05.657Z,17.83
2019-01-23T08:32:32.899Z,18.17
2019-01-23T08:35:00.371Z,19.17
2019-01-23T08:37:27.726Z,18.00
2019-01-23T08:39:55.157Z,19.77
2019-01-23T08:42:22.417Z,18.90
2019-01-23T08:44:49.881Z,18.70
2019-01-23T08:47:17.442Z,18.00
2019-01-23T08:49:45.638Z,18.43
2019-01-23T08:52:13.251Z,17.30
2019-01-23T08:54:40.575Z,19.37
2019-01-23T08:57:07.928Z,16.47
2019-01-23T08:59:35.352Z,18.33
2019-01-23T09:02:02.612Z,17.87
2019-01-23T09:04:29.950Z,18.23
2019-01-23T09:06:57.299Z,20.30
2019-01-23T09:09:24.629Z,17.37
2019-01-23T09:11:52.179Z,19.17
2019-01-23T09:14:19.605Z,18.20
2019-01-23T09:16:47.250Z,18.07
2019-01-23T09:19:14.476Z,15.60
2019-01-23T09:21:41.732Z,19.07
2019-01-23T09:24:09.052Z,18.47
2019-01-23T09:26:36.479Z,18.70
2019-01-23T09:29:03.737Z,19.07
2019-01-23T09:32:00.211Z,17.60
2019-01-23T09:34:34.696Z,18.30
2019-01-23T09:37:37.178Z,17.17
2019-01-23T09:40:29.249Z,16.77
2019-01-23T09:43:56.687Z,16.97
2019-01-23T09:46:42.069Z,15.10
2019-01-23T09:49:46.737Z,16.93
2019-01-23T09:53:14.250Z,15.63
2019-01-23T09:55:41.757Z,17.83
2019-01-23T09:58:10.047Z,17.27
2019-01-23T10:00:37.369Z,15.43
2019-01-23T10:03:04.795Z,16.57
2019-01-23T10:05:32.045Z,16.67
2019-01-23T10:07:59.355Z,18.30
2019-01-23T10:10:26.592Z,17.10
2019-01-23T10:12:53.908Z,17.00
2019-01-23T10:15:32.940Z,16.83
2019-01-23T10:18:00.378Z,16.60
2019-01-23T10:20:27.725Z,17.23
2019-01-23T10:22:55.144Z,17.63
2019-01-23T10:25:22.390Z,17.10
2019-01-23T10:27:49.622Z,19.17
2019-01-23T10:30:17.141Z,18.50
2019-01-23T10:32:44.500Z,17.97
2019-01-23T10:35:12.685Z,16.30
2019-01-23T10:37:40.288Z,17.37
2019-01-23T10:40:10.584Z,17.70
2019-01-23T10:42:37.891Z,18.97
2019-01-23T10:45:06.020Z,18.37
2019-01-23T10:47:33.338Z,17.47
2019-01-23T10:50:00.693Z,15.80
2019-01-23T10:52:28.059Z,17.67
2019-01-23T10:54:55.177Z,17.03
2019-01-23T10:57:22.536Z,16.83
2019-01-23T10:59:49.840Z,17.60
2019-01-23T11:02:17.087Z,15.53
2019-01-23T11:04:44.448Z,16.97
2019-01-23T11:07:11.768Z,17.70
2019-01-23T11:09:39.016Z,16.10
2019-01-23T11:12:06.340Z,17.77
2019-01-23T11:14:33.695Z,15.80
2019-01-23T11:17:01.137Z,17.13
2019-01-23T11:19:28.459Z,12.60
2019-01-23T11:21:55.672Z,17.60
2019-01-23T11:24:22.988Z,17.30
2019-01-23T11:26:50.470Z,16.90
2019-01-23T11:29:17.828Z,18.93
2019-01-23T11:31:45.058Z,17.07
2019-01-23T11:34:12.370Z,18.20
2019-01-23T11:36:39.796Z,17.13
2019-01-23T11:39:08.361Z,19.17
2019-01-23T11:41:35.608Z,16.77
2019-01-23T11:44:02.938Z,19.03
2019-01-23T11:46:30.381Z,16.13
2019-01-23T11:48:57.827Z,16.70
2019-01-23T11:51:25.147Z,18.90
2019-01-23T11:53:52.416Z,18.37
2019-01-23T11:56:19.663Z,17.77
2019-01-23T11:58:46.866Z,19.23
2019-01-23T12:01:14.203Z,18.93
2019-01-23T12:03:41.551Z,17.43
2019-01-23T12:06:08.883Z,17.57
2019-01-23T12:08:36.359Z,18.57
2019-01-23T12:11:03.789Z,19.50
2019-01-23T12:13:31.307Z,19.10
2019-01-23T12:15:58.660Z,20.53
2019-01-23T12:18:25.976Z,20.20
2019-01-23T12:20:53.219Z,19.73
2019-01-23T12:23:20.590Z,19.37
2019-01-23T12:25:47.915Z,19.97
2019-01-23T12:28:15.128Z,20.60
2019-01-23T12:30:42.388Z,21.23
2019-01-23T12:33:09.709Z,20.20
2019-01-23T12:35:37.070Z,20.10
2019-01-23T12:38:04.495Z,19.03
2019-01-23T12:40:31.911Z,21.80
2019-01-23T12:42:59.459Z,19.30
2019-01-23T12:45:27.435Z,20.37
2019-01-23T12:47:54.756Z,18.73
2019-01-23T12:50:24.526Z,20.50
2019-01-23T12:52:51.729Z,19.73
2019-01-23T12:55:19.299Z,18.57
2019-01-23T12:57:46.635Z,19.23
2019-01-23T13:00:17.767Z,17.70
2019-01-23T13:02:45.080Z,18.43
2019-01-23T13:05:14.316Z,20.33
2019-01-23T13:07:41.521Z,18.17
2019-01-23T13:10:12.411Z,19.03
2019-01-23T13:12:39.827Z,19.80
2019-01-23T13:15:08.983Z,20.13
2019-01-23T13:17:36.226Z,19.70
2019-01-23T13:20:05.976Z,18.07
2019-01-23T13:22:33.718Z,19.23
2019-01-23T13:25:01.141Z,19.67
2019-01-23T13:27:28.427Z,19.23
2019-01-23T13:29:55.642Z,20.20
2019-01-23T13:32:22.999Z,18.77
2019-01-23T13:34:50.904Z,16.97
2019-01-23T13:37:18.356Z,19.03
2019-01-23T13:39:45.568Z,19.00
2019-01-23T13:42:12.956Z,19.50
2019-01-23T13:44:40.216Z,17.63
2019-01-23T13:47:07.536Z,19.77
2019-01-23T13:49:34.867Z,19.27
2019-01-23T13:52:02.268Z,19.57
2019-01-23T13:54:29.524Z,18.80
2019-01-23T13:56:56.845Z,18.67
2019-01-23T13:59:24.013Z,19.37
2019-01-23T14:01:56.270Z,18.43
2019-01-23T14:04:20.912Z,18.33
2019-01-23T14:06:48.245Z,18.90
2019-01-23T14:09:15.679Z,19.30
2019-01-23T14:11:43.187Z,20.07
2019-01-23T14:14:10.564Z,19.30
2019-01-23T14:16:37.923Z,18.47
2019-01-23T14:19:05.135Z,18.07
2019-01-23T14:21:32.400Z,17.67
2019-01-23T14:23:59.722Z,17.97
2019-01-23T14:26:27.081Z,19.17
2019-01-23T14:28:54.400Z,19.00
2019-01-23T14:31:21.811Z,17.90
2019-01-23T14:33:49.171Z,20.20
2019-01-23T14:36:16.416Z,19.10
2019-01-23T14:38:43.751Z,19.63
2019-01-23T14:41:11.088Z,19.67
2019-01-23T14:43:38.562Z,19.47
2019-01-23T14:46:05.973Z,19.00
2019-01-23T14:48:33.432Z,17.97
2019-01-23T14:51:00.731Z,18.50
2019-01-23T14:53:27.954Z,19.37
2019-01-23T14:55:55.330Z,18.10
2019-01-23T14:58:22.560Z,19.17
2019-01-23T15:00:49.895Z,19.23
2019-01-23T15:03:17.217Z,17.93
2019-01-23T15:05:44.565Z,18.53
2019-01-23T15:08:11.872Z,18.03
2019-01-23T15:10:39.337Z,19.07
2019-01-23T15:13:06.743Z,17.50
2019-01-23T15:15:34.003Z,18.80
2019-01-23T15:18:01.383Z,17.70
2019-01-23T15:20:34.136Z,18.00
2019-01-23T15:23:01.571Z,17.87
2019-01-23T15:25:28.915Z,18.37
2019-01-23T15:27:56.521Z,18.53
2019-01-23T15:30:24.237Z,17.10
2019-01-23T15:32:52.396Z,17.17
2019-01-23T15:35:19.854Z,17.87
2019-01-23T15:37:47.128Z,19.23
2019-01-23T15:40:19.816Z,17.83
2019-01-23T15:42:47.004Z,17.20
2019-01-23T15:45:14.219Z,17.77
2019-01-23T15:47:41.764Z,17.63
2019-01-23T15:50:12.352Z,19.00
2019-01-23T15:52:39.794Z,16.83
2019-01-23T15:55:09.143Z,17.93
2019-01-23T15:57:36.396Z,17.50
2019-01-23T16:00:06.352Z,17.50
2019-01-23T16:02:33.656Z,17.70
2019-01-23T16:05:00.866Z,16.87
2019-01-23T16:07:28.308Z,16.50
2019-01-23T16:09:55.654Z,16.73
2019-01-23T16:12:23.236Z,17.63
2019-01-23T16:14:50.600Z,17.37
2019-01-23T16:17:17.856Z,18.00
2019-01-23T16:19:45.141Z,16.20
2019-01-23T16:22:12.377Z,16.70
2019-01-23T16:24:39.683Z,16.90
2019-01-23T16:27:07.173Z,16.10
2019-01-23T16:29:34.796Z,14.50
2019-01-23T16:32:02.112Z,16.40
2019-01-23T16:34:29.551Z,16.67
2019-01-23T16:36:57.103Z,14.07
2019-01-23T16:39:24.336Z,15.03
2019-01-23T16:41:51.684Z,13.77
2019-01-23T16:44:18.919Z,14.20
2019-01-23T16:46:46.159Z,14.10
2019-01-23T16:49:13.375Z,13.53
2019-01-23T16:51:40.721Z,13.67
2019-01-23T16:54:08.110Z,13.80
2019-01-23T16:56:35.535Z,13.57
2019-01-23T16:59:03.236Z,12.73
2019-01-23T17:01:30.748Z,13.77
2019-01-23T17:04:00.288Z,13.13
2019-01-23T17:06:27.484Z,13.20
2019-01-23T17:08:54.811Z,12.47
2019-01-23T17:11:22.160Z,11.80
2019-01-23T17:13:49.481Z,12.40
2019-01-23T17:16:16.844Z,11.97
2019-01-23T17:18:44.283Z,12.53
2019-01-23T17:21:11.532Z,15.00
2019-01-23T17:23:38.855Z,15.43
2019-01-23T17:26:07.124Z,12.60
2019-01-23T17:28:34.633Z,12.97
2019-01-23T17:31:02.209Z,16.53
2019-01-23T17:33:29.560Z,13.63
2019-01-23T17:35:57.005Z,13.90
2019-01-23T17:38:24.472Z,20.33
2019-01-23T17:40:51.686Z,13.07
2019-01-23T17:43:19.303Z,12.83
2019-01-23T17:45:46.562Z,12.23
2019-01-23T17:48:14.313Z,13.27
2019-01-23T17:50:41.711Z,11.23
2019-01-23T17:53:09.103Z,11.17
2019-01-23T17:55:37.542Z,10.13
2019-01-23T17:58:07.223Z,11.13
2019-01-23T18:00:37.976Z,10.90
2019-01-23T18:03:05.737Z,11.70
2019-01-23T18:05:33.060Z,10.87
2019-01-23T18:08:00.705Z,10.97
2019-01-23T18:10:28.410Z,10.67
2019-01-23T18:12:55.838Z,11.00
2019-01-23T18:15:23.868Z,11.53
2019-01-23T18:17:51.244Z,10.27
2019-01-23T18:20:20.686Z,11.10
2019-01-23T18:22:48.091Z,10.07
2019-01-23T18:25:15.772Z,9.60
2019-01-23T18:27:43.831Z,9.03
2019-01-23T18:30:17.887Z,8.87
2019-01-23T18:32:45.525Z,9.60
2019-01-23T18:36:02.931Z,10.23
2019-01-23T18:39:08.643Z,10.10
2019-01-23T18:42:29.695Z,9.50
2019-01-23T18:45:08.397Z,9.07
2019-01-23T18:48:16.533Z,9.30
2019-01-23T18:51:35.265Z,9.03
2019-01-23T18:54:02.601Z,10.63
2019-01-23T18:56:30.283Z,9.03
2019-01-23T18:58:57.490Z,9.57
2019-01-23T19:01:24.966Z,9.90
2019-01-23T19:03:52.308Z,9.53
2019-01-23T19:06:19.531Z,9.77
2019-01-23T19:08:46.980Z,9.23
2019-01-23T19:11:14.304Z,8.80
2019-01-23T19:13:42.643Z,8.07
2019-01-23T19:16:10.298Z,9.60
2019-01-23T19:18:37.547Z,7.87
2019-01-23T19:21:05.552Z,8.37
2019-01-23T19:23:32.900Z,8.77
2019-01-23T19:26:00.249Z,9.47
2019-01-23T19:28:27.619Z,9.33
2019-01-23T19:30:54.987Z,9.20
2019-01-23T19:33:22.309Z,9.03
2019-01-23T19:35:49.655Z,8.50
2019-01-23T19:38:16.899Z,7.67
2019-01-23T19:40:44.213Z,7.73
2019-01-23T19:43:11.581Z,7.90
2019-01-23T19:45:38.811Z,8.87
2019-01-23T19:48:06.031Z,8.90
2019-01-23T19:50:33.369Z,8.30
2019-01-23T19:53:00.807Z,8.80
2019-01-23T19:55:28.167Z,7.60
2019-01-23T19:57:55.516Z,7.83
2019-01-23T20:00:23.090Z,8.20
2019-01-23T20:02:50.508Z,8.20
2019-01-23T20:05:23.730Z,8.83
2019-01-23T20:07:51.412Z,7.47
2019-01-23T20:10:20.190Z,7.33
2019-01-23T20:12:47.503Z,8.17
2019-01-23T20:15:16.359Z,7.47
2019-01-23T20:17:43.728Z,7.53
2019-01-23T20:20:11.814Z,7.60
2019-01-23T20:22:39.072Z,7.30
2019-01-23T20:25:09.304Z,7.03
2019-01-23T20:27:36.648Z,7.47
2019-01-23T20:30:11.588Z,8.07
2019-01-23T20:32:39.103Z,8.63
2019-01-23T20:35:07.561Z,8.50
2019-01-23T20:37:34.906Z,8.23
2019-01-23T20:40:02.224Z,8.50
2019-01-23T20:42:29.522Z,7.60
2019-01-23T20:44:56.796Z,8.63
2019-01-23T20:47:24.107Z,8.87
2019-01-23T20:49:51.340Z,7.70
2019-01-23T20:52:18.675Z,6.83
2019-01-23T20:54:46.246Z,6.63
2019-01-23T20:57:13.496Z,7.03
2019-01-23T20:59:40.823Z,6.80
2019-01-23T21:02:08.134Z,6.70
2019-01-23T21:04:35.390Z,6.67
2019-01-23T21:07:03.884Z,6.77
2019-01-23T21:09:31.262Z,6.83
2019-01-23T21:11:58.600Z,7.00
2019-01-23T21:14:25.916Z,6.40
2019-01-23T21:16:53.265Z,7.50
2019-01-23T21:19:20.570Z,7.37
2019-01-23T21:21:47.916Z,6.87
2019-01-23T21:24:15.289Z,7.73
2019-01-23T21:26:42.648Z,7.43
2019-01-23T21:29:09.986Z,7.70
2019-01-23T21:31:37.403Z,7.17
2019-01-23T21:34:04.752Z,6.50
2019-01-23T21:36:32.061Z,6.40
2019-01-23T21:38:59.323Z,6.97
2019-01-23T21:41:26.577Z,16.90
2019-01-23T21:43:53.884Z,7.30
2019-01-23T21:46:21.194Z,5.87
2019-01-23T21:48:48.433Z,7.57
2019-01-23T21:51:15.654Z,6.20
2019-01-23T21:53:42.989Z,6.37
2019-01-23T21:56:10.405Z,6.83
2019-01-23T21:58:37.799Z,7.60
2019-01-23T22:01:05.148Z,6.33
2019-01-23T22:03:32.580Z,6.97
2019-01-23T22:05:59.915Z,6.43
2019-01-23T22:08:27.147Z,7.60
2019-01-23T22:10:54.488Z,7.07
2019-01-23T22:13:21.849Z,6.73
2019-01-23T22:15:49.196Z,6.60
2019-01-23T22:18:16.840Z,7.00
2019-01-23T22:20:44.070Z,8.30
2019-01-23T22:23:11.336Z,6.27
2019-01-23T22:25:38.692Z,7.97
2019-01-23T22:28:06.149Z,7.13
2019-01-23T22:30:33.523Z,7.13
2019-01-23T22:33:01.080Z,6.60
2019-01-23T22:35:28.416Z,7.23
2019-01-23T22:37:55.664Z,7.70
2019-01-23T22:40:23.196Z,8.30
2019-01-23T22:42:50.590Z,7.87
2019-01-23T22:45:18.580Z,7.93
2019-01-23T22:47:45.935Z,6.77
2019-01-23T22:50:17.208Z,7.30
2019-01-23T22:52:45.005Z,7.73
2019-01-23T22:55:12.643Z,6.77
2019-01-23T22:57:39.890Z,7.43
2019-01-23T23:00:37.232Z,6.53
2019-01-23T23:03:06.694Z,7.13
2019-01-23T23:05:34.144Z,8.00
2019-01-23T23:08:01.667Z,6.80
2019-01-23T23:10:29.179Z,6.97
2019-01-23T23:12:56.422Z,7.00
2019-01-23T23:15:23.642Z,7.47
2019-01-23T23:17:50.988Z,6.97
2019-01-23T23:20:18.443Z,6.60
2019-01-23T23:22:45.804Z,7.47
2019-01-23T23:25:13.130Z,7.03
2019-01-23T23:27:40.475Z,6.47
2019-01-23T23:30:09.872Z,6.77
2019-01-23T23:32:37.232Z,6.27
2019-01-23T23:35:05.183Z,6.90
2019-01-23T23:37:32.519Z,6.63
2019-01-23T23:39:59.724Z,6.27
2019-01-23T23:42:27.065Z,6.47
2019-01-23T23:44:54.312Z,7.03
2019-01-23T23:47:21.760Z,6.50
2019-01-23T23:49:49.080Z,7.60
2019-01-23T23:52:16.409Z,5.83
2019-01-23T23:54:43.750Z,6.27
2019-01-23T23:57:11.060Z,5.47
2019-01-23T23:59:38.395Z,6.13
